Time;durP1;ratioP1;P1;durP2;ratioP2;P2;SDS_P1;SDS_P2;PMS_P1;PMS_P2;Temp;Humidity;BMP_temperature;BMP_pressure;BME280_temperature;BME280_humidity;BME280_pressure;Samples;Min_cycle;Max_cycle;Signal;HPM_P1;HPM_P2
2022/08/08 00:02:05;;;;;;;12.43;7.90;;;;;;;;;;5058782;28;20205;-66
2022/08/08 00:04:40;;;;;;;9.93;7.53;;;;;;;;;;5060959;28;20594;-66
2022/08/08 00:07:11;;;;;;;9.30;7.10;;;;;;;;;;5048598;28;20243;-66
2022/08/08 00:09:59;;;;;;;13.60;7.95;;;;;;;;;;5047490;28;20251;-66
2022/08/08 00:12:48;;;;;;;15.25;8.05;;;;;;;;;;5051123;28;20179;-66
2022/08/08 00:15:20;;;;;;;11.10;7.60;;;;;;;;;;5051528;28;20209;-66
2022/08/08 00:18:25;;;;;;;15.20;8.43;;;;;;;;;;5059949;28;20200;-66
2022/08/08 00:20:55;;;;;;;14.35;8.45;;;;;;;;;;5011042;28;20938;-66
2022/08/08 00:23:30;;;;;;;14.93;7.85;;;;;;;;;;5047967;28;20193;-66
2022/08/08 00:25:59;;;;;;;14.73;8.38;;;;;;;;;;5056103;28;20242;-66
2022/08/08 00:28:45;;;;;;;10.05;7.57;;;;;;;;;;5047380;28;20232;-66
2022/08/08 00:31:16;;;;;;;9.77;7.72;;;;;;;;;;5048076;28;20259;-66
2022/08/08 00:33:53;;;;;;;10.23;8.07;;;;;;;;;;5050865;28;20281;-66
2022/08/08 00:36:29;;;;;;;12.15;8.90;;;;;;;;;;5055943;28;20181;-66
2022/08/08 00:39:07;;;;;;;11.60;8.38;;;;;;;;;;5066415;28;20223;-66
2022/08/08 00:41:32;;;;;;;12.85;7.82;;;;;;;;;;5068909;28;20215;-66
2022/08/08 00:44:18;;;;;;;10.98;8.98;;;;;;;;;;5056329;28;20185;-66
2022/08/08 00:47:09;;;;;;;9.10;7.88;;;;;;;;;;5061762;28;20201;-66
2022/08/08 00:49:54;;;;;;;11.65;8.00;;;;;;;;;;5057370;28;20170;-66
2022/08/08 00:52:47;;;;;;;11.00;7.95;;;;;;;;;;5061735;28;20177;-66
2022/08/08 00:55:44;;;;;;;13.90;7.45;;;;;;;;;;5054216;28;20181;-66
2022/08/08 00:58:27;;;;;;;10.88;8.05;;;;;;;;;;5019995;28;20284;-66
2022/08/08 01:01:13;;;;;;;13.30;8.55;;;;;;;;;;5063479;28;20669;-66
2022/08/08 01:04:06;;;;;;;10.40;7.40;;;;;;;;;;5065239;28;20181;-66
2022/08/08 01:07:01;;;;;;;10.48;8.00;;;;;;;;;;5065831;28;20180;-66
2022/08/08 01:10:14;;;;;;;10.38;8.15;;;;;;;;;;5066190;28;20672;-66
2022/08/08 01:13:04;;;;;;;11.38;8.57;;;;;;;;;;5055727;28;20268;-66
2022/08/08 01:15:51;;;;;;;11.15;8.48;;;;;;;;;;5054930;28;20185;-66
2022/08/08 01:18:29;;;;;;;14.15;8.38;;;;;;;;;;5063605;28;20650;-66
2022/08/08 01:21:29;;;;;;;12.30;8.65;;;;;;;;;;5063154;28;20265;-66
2022/08/08 01:23:54;;;;;;;16.23;8.40;;;;;;;;;;5057978;28;20177;-66
2022/08/08 01:26:47;;;;;;;13.32;8.48;;;;;;;;;;5064825;28;20225;-66
2022/08/08 01:29:31;;;;;;;17.35;8.70;;;;;;;;;;5051710;28;20204;-66
2022/08/08 01:32:47;;;;;;;13.45;9.13;;;;;;;;;;5059323;28;20209;-66
2022/08/08 01:35:31;;;;;;;11.88;8.38;;;;;;;;;;5060890;28;20203;-66
2022/08/08 01:38:18;;;;;;;15.70;10.00;;;;;;;;;;5068287;28;20189;-66
2022/08/08 01:41:04;;;;;;;14.88;9.77;;;;;;;;;;5065130;28;20189;-66
2022/08/08 01:43:57;;;;;;;13.70;9.25;;;;;;;;;;5051516;28;20207;-66
2022/08/08 01:46:47;;;;;;;11.20;8.57;;;;;;;;;;5052598;28;20280;-66
2022/08/08 01:49:34;;;;;;;14.60;8.77;;;;;;;;;;5064828;28;20659;-66
2022/08/08 01:52:15;;;;;;;10.88;8.63;;;;;;;;;;5053396;28;20193;-66
2022/08/08 01:55:15;;;;;;;9.75;8.38;;;;;;;;;;5050707;28;20181;-66
2022/08/08 01:58:16;;;;;;;14.32;9.68;;;;;;;;;;5049014;28;20185;-66
2022/08/08 02:00:56;;;;;;;14.02;9.95;;;;;;;;;;5055679;28;20596;-66
2022/08/08 02:03:39;;;;;;;11.98;9.00;;;;;;;;;;5054706;28;20195;-66
2022/08/08 02:06:17;;;;;;;13.18;9.27;;;;;;;;;;5059073;28;20321;-66
2022/08/08 02:09:21;;;;;;;13.77;9.25;;;;;;;;;;5053464;28;20176;-66
2022/08/08 02:11:47;;;;;;;14.82;9.85;;;;;;;;;;5010869;28;20207;-66
2022/08/08 02:14:25;;;;;;;13.85;9.68;;;;;;;;;;5050899;28;20189;-66
2022/08/08 02:16:59;;;;;;;12.85;9.70;;;;;;;;;;5060323;28;20196;-66
2022/08/08 02:19:30;;;;;;;12.77;9.65;;;;;;;;;;5056938;28;20191;-66
2022/08/08 02:25:12;;;;;;;13.35;10.38;;;;;;;;;;5060196;28;20246;-66
2022/08/08 02:27:48;;;;;;;13.23;9.73;;;;;;;;;;5049959;28;20220;-66
2022/08/08 02:30:18;;;;;;;13.35;10.38;;;;;;;;;;5059090;28;20181;-66
2022/08/08 02:32:55;;;;;;;14.90;10.27;;;;;;;;;;5053590;28;20204;-66
2022/08/08 02:35:52;;;;;;;13.05;9.98;;;;;;;;;;5052321;28;20207;-66
2022/08/08 02:38:42;;;;;;;14.13;10.68;;;;;;;;;;5062269;28;20215;-66
2022/08/08 02:41:34;;;;;;;13.75;10.20;;;;;;;;;;5055763;28;20549;-66
2022/08/08 02:44:36;;;;;;;15.98;10.73;;;;;;;;;;5061623;28;20181;-66
2022/08/08 02:47:19;;;;;;;15.88;11.68;;;;;;;;;;5050075;28;20212;-66
2022/08/08 02:50:09;;;;;;;16.17;11.13;;;;;;;;;;5056895;28;20701;-66
2022/08/08 02:52:40;;;;;;;15.90;11.68;;;;;;;;;;5063350;28;20178;-66
2022/08/08 02:55:41;;;;;;;17.55;11.07;;;;;;;;;;5058941;28;20177;-66
2022/08/08 02:58:30;;;;;;;14.63;11.30;;;;;;;;;;5050054;28;20226;-66
2022/08/08 03:01:35;;;;;;;15.00;11.32;;;;;;;;;;5047927;28;20180;-66
2022/08/08 03:04:54;;;;;;;15.13;11.00;;;;;;;;;;5053735;28;20189;-66
2022/08/08 03:07:38;;;;;;;15.07;11.25;;;;;;;;;;5005073;28;20198;-66
2022/08/08 03:10:21;;;;;;;14.98;11.02;;;;;;;;;;5050040;28;20174;-66
2022/08/08 03:13:04;;;;;;;15.55;10.90;;;;;;;;;;5049745;28;20181;-66
2022/08/08 03:15:58;;;;;;;15.15;11.07;;;;;;;;;;5065400;28;20195;-66
2022/08/08 03:18:27;;;;;;;13.25;10.93;;;;;;;;;;5049219;28;20223;-66
2022/08/08 03:20:52;;;;;;;16.38;11.55;;;;;;;;;;5048279;28;20170;-66
2022/08/08 03:23:20;;;;;;;15.43;11.88;;;;;;;;;;5052128;28;20266;-66
2022/08/08 03:25:46;;;;;;;21.40;13.05;;;;;;;;;;5056150;28;20567;-66
2022/08/08 03:28:20;;;;;;;16.30;12.63;;;;;;;;;;5062469;28;20185;-66
2022/08/08 03:30:46;;;;;;;17.25;12.25;;;;;;;;;;5063826;28;20180;-66
2022/08/08 03:33:18;;;;;;;15.52;11.85;;;;;;;;;;5053085;28;20182;-66
2022/08/08 03:35:49;;;;;;;15.98;11.65;;;;;;;;;;5066953;28;20208;-66
2022/08/08 03:38:16;;;;;;;16.02;11.75;;;;;;;;;;5054280;28;20552;-66
2022/08/08 03:40:51;;;;;;;20.35;14.60;;;;;;;;;;5064281;28;20695;-66
2022/08/08 03:43:17;;;;;;;23.75;16.17;;;;;;;;;;5064128;28;20228;-66
2022/08/08 03:45:43;;;;;;;24.30;16.80;;;;;;;;;;5067103;28;20217;-66
2022/08/08 03:48:09;;;;;;;24.17;16.70;;;;;;;;;;5058183;28;20187;-66
2022/08/08 03:50:39;;;;;;;26.27;17.05;;;;;;;;;;5049071;28;20284;-66
2022/08/08 03:53:10;;;;;;;27.55;16.92;;;;;;;;;;5055829;28;20185;-66
2022/08/08 03:55:41;;;;;;;25.10;16.63;;;;;;;;;;5049094;28;20209;-66
2022/08/08 03:58:08;;;;;;;22.63;16.30;;;;;;;;;;5060967;28;20230;-66
2022/08/08 04:00:35;;;;;;;20.98;14.55;;;;;;;;;;5048834;28;20216;-66
2022/08/08 04:03:06;;;;;;;19.08;14.38;;;;;;;;;;5050249;28;20567;-66
2022/08/08 04:05:34;;;;;;;20.52;13.75;;;;;;;;;;5059346;28;20185;-66
2022/08/08 04:08:03;;;;;;;17.33;13.15;;;;;;;;;;5053427;28;20543;-66
2022/08/08 04:10:29;;;;;;;17.25;13.30;;;;;;;;;;5057907;28;21335;-66
2022/08/08 04:12:55;;;;;;;20.33;14.40;;;;;;;;;;5059541;28;20653;-66
2022/08/08 04:15:21;;;;;;;17.73;13.32;;;;;;;;;;5068673;28;20177;-66
2022/08/08 04:17:46;;;;;;;19.98;14.20;;;;;;;;;;5063616;28;20199;-66
2022/08/08 04:20:12;;;;;;;21.55;14.98;;;;;;;;;;5057730;28;20552;-66
2022/08/08 04:22:38;;;;;;;21.10;14.82;;;;;;;;;;5062643;28;20291;-66
2022/08/08 04:25:05;;;;;;;19.33;13.70;;;;;;;;;;5057007;28;20262;-66
2022/08/08 04:27:31;;;;;;;20.23;14.68;;;;;;;;;;5053169;28;20267;-66
2022/08/08 04:29:56;;;;;;;18.25;13.75;;;;;;;;;;5051028;28;20185;-66
2022/08/08 04:32:21;;;;;;;15.55;12.55;;;;;;;;;;5058678;28;20283;-66
2022/08/08 04:34:47;;;;;;;20.05;13.93;;;;;;;;;;5052014;28;20185;-66
2022/08/08 04:37:13;;;;;;;21.20;14.18;;;;;;;;;;5060880;28;20187;-66
2022/08/08 04:39:39;;;;;;;19.00;12.60;;;;;;;;;;5066642;28;20183;-66
2022/08/08 04:42:04;;;;;;;22.27;14.02;;;;;;;;;;5061234;28;20205;-66
2022/08/08 04:44:30;;;;;;;16.25;12.43;;;;;;;;;;5067999;28;20310;-66
2022/08/08 04:46:56;;;;;;;17.58;13.07;;;;;;;;;;5060241;28;20189;-66
2022/08/08 04:49:21;;;;;;;17.80;13.55;;;;;;;;;;5060748;28;20181;-66
2022/08/08 04:51:46;;;;;;;19.27;13.35;;;;;;;;;;5053561;28;20680;-66
2022/08/08 04:54:12;;;;;;;16.73;12.73;;;;;;;;;;5057487;28;20209;-66
2022/08/08 04:56:37;;;;;;;18.10;12.95;;;;;;;;;;5051524;28;20185;-66
2022/08/08 04:59:03;;;;;;;18.63;13.95;;;;;;;;;;5053244;28;20519;-67
2022/08/08 05:01:28;;;;;;;22.40;14.50;;;;;;;;;;5052514;28;20213;-67
2022/08/08 05:03:53;;;;;;;17.60;13.25;;;;;;;;;;5049392;28;20193;-66
2022/08/08 05:06:19;;;;;;;15.07;12.13;;;;;;;;;;5051960;28;20599;-66
2022/08/08 05:08:46;;;;;;;22.63;13.45;;;;;;;;;;5055841;28;20704;-66
2022/08/08 05:11:12;;;;;;;17.55;12.73;;;;;;;;;;5051357;28;20173;-66
2022/08/08 05:13:39;;;;;;;18.23;12.35;;;;;;;;;;5058236;28;20209;-66
2022/08/08 05:16:04;;;;;;;16.77;12.75;;;;;;;;;;5053858;28;21090;-66
2022/08/08 05:18:30;;;;;;;15.77;11.52;;;;;;;;;;5059981;28;20260;-66
2022/08/08 05:20:55;;;;;;;13.95;11.95;;;;;;;;;;5055141;28;20564;-66
2022/08/08 05:23:20;;;;;;;13.52;11.02;;;;;;;;;;5053851;28;20182;-66
2022/08/08 05:25:47;;;;;;;13.68;11.00;;;;;;;;;;5056545;28;20193;-66
2022/08/08 05:28:13;;;;;;;15.90;11.05;;;;;;;;;;5057268;28;20189;-66
2022/08/08 05:30:38;;;;;;;14.85;10.07;;;;;;;;;;5068984;28;20177;-66
2022/08/08 05:33:03;;;;;;;14.35;11.38;;;;;;;;;;5062369;28;20758;-66
2022/08/08 05:35:30;;;;;;;13.95;10.40;;;;;;;;;;5049611;28;20181;-66
2022/08/08 05:38:03;;;;;;;14.88;10.05;;;;;;;;;;5053322;28;20197;-66
2022/08/08 05:40:29;;;;;;;11.88;9.63;;;;;;;;;;5061886;28;20178;-66
2022/08/08 05:43:07;;;;;;;13.02;10.18;;;;;;;;;;5059355;28;20213;-66
2022/08/08 05:45:35;;;;;;;11.93;9.45;;;;;;;;;;5068323;28;20183;-66
2022/08/08 05:48:01;;;;;;;10.85;9.60;;;;;;;;;;5055818;28;20188;-67
2022/08/08 05:50:28;;;;;;;10.43;8.60;;;;;;;;;;5059630;28;20181;-67
2022/08/08 05:52:54;;;;;;;12.90;8.57;;;;;;;;;;5055445;28;20672;-67
2022/08/08 05:55:20;;;;;;;11.10;8.43;;;;;;;;;;5054684;28;20182;-67
2022/08/08 05:57:48;;;;;;;14.93;8.18;;;;;;;;;;5059008;28;20196;-67
2022/08/08 06:00:14;;;;;;;15.68;7.78;;;;;;;;;;5052606;28;20185;-67
2022/08/08 06:05:31;;;;;;;11.02;7.75;;;;;;;;;;5062299;28;20199;-67
2022/08/08 06:07:57;;;;;;;11.63;7.40;;;;;;;;;;5053402;28;20266;-66
2022/08/08 06:10:23;;;;;;;10.50;7.22;;;;;;;;;;5055769;28;20189;-66
2022/08/08 06:12:50;;;;;;;11.90;7.10;;;;;;;;;;5054175;28;20181;-66
2022/08/08 06:15:15;;;;;;;10.18;7.35;;;;;;;;;;5047628;28;20639;-66
2022/08/08 06:17:41;;;;;;;10.13;7.30;;;;;;;;;;5052043;28;20359;-66
2022/08/08 06:20:12;;;;;;;10.80;6.85;;;;;;;;;;5048295;28;20282;-66
2022/08/08 06:22:38;;;;;;;10.57;6.70;;;;;;;;;;5053723;28;20205;-66
2022/08/08 06:25:05;;;;;;;10.38;6.60;;;;;;;;;;5048781;28;20268;-67
2022/08/08 06:27:51;;;;;;;12.52;6.53;;;;;;;;;;5049889;28;20633;-67
2022/08/08 06:30:18;;;;;;;9.65;6.18;;;;;;;;;;5049694;28;20453;-67
2022/08/08 06:33:06;;;;;;;7.93;5.68;;;;;;;;;;5050985;28;20263;-67
2022/08/08 06:35:33;;;;;;;12.95;6.15;;;;;;;;;;5062310;28;20180;-67
2022/08/08 06:38:00;;;;;;;7.32;5.13;;;;;;;;;;5057163;28;20208;-67
2022/08/08 06:40:30;;;;;;;12.18;5.60;;;;;;;;;;5051988;28;20188;-67
2022/08/08 06:43:03;;;;;;;8.48;5.60;;;;;;;;;;5052885;28;20205;-68
2022/08/08 06:45:32;;;;;;;7.45;5.00;;;;;;;;;;5056797;28;20238;-67
2022/08/08 06:47:59;;;;;;;9.70;5.15;;;;;;;;;;5053794;28;20271;-67
2022/08/08 06:50:25;;;;;;;9.85;5.35;;;;;;;;;;5051161;28;20609;-67
2022/08/08 06:52:50;;;;;;;11.23;5.43;;;;;;;;;;5053329;28;20187;-67
2022/08/08 06:55:17;;;;;;;8.93;5.90;;;;;;;;;;5051508;28;20188;-67
2022/08/08 06:57:42;;;;;;;11.75;6.60;;;;;;;;;;5054209;28;20326;-67
2022/08/08 07:00:08;;;;;;;8.07;5.50;;;;;;;;;;5049336;28;20291;-67
2022/08/08 07:02:34;;;;;;;8.32;5.28;;;;;;;;;;5046659;28;20618;-67
2022/08/08 07:05:06;;;;;;;8.80;4.15;;;;;;;;;;5053879;28;20189;-68
2022/08/08 07:07:42;;;;;;;9.15;4.18;;;;;;;;;;4348844;28;10000733;-68
2022/08/08 07:10:09;;;;;;;8.32;4.53;;;;;;;;;;5048163;28;20435;-67
2022/08/08 07:12:41;;;;;;;8.73;4.90;;;;;;;;;;5049354;28;20185;-67
2022/08/08 07:15:12;;;;;;;6.78;3.95;;;;;;;;;;5046206;28;20648;-67
2022/08/08 07:17:48;;;;;;;8.13;4.22;;;;;;;;;;5056062;28;20177;-67
2022/08/08 07:20:19;;;;;;;8.93;4.38;;;;;;;;;;5052381;28;20181;-67
2022/08/08 07:23:02;;;;;;;9.85;4.40;;;;;;;;;;5047769;28;20294;-67
2022/08/08 07:25:31;;;;;;;6.63;3.88;;;;;;;;;;5050617;28;20185;-67
2022/08/08 07:28:06;;;;;;;5.85;3.80;;;;;;;;;;5049750;28;20650;-67
2022/08/08 07:30:32;;;;;;;7.70;3.55;;;;;;;;;;5052024;28;20180;-67
2022/08/08 07:32:59;;;;;;;7.30;4.00;;;;;;;;;;5054955;28;20200;-67
2022/08/08 07:35:25;;;;;;;11.52;3.97;;;;;;;;;;5049012;28;20633;-67
2022/08/08 07:37:51;;;;;;;7.72;3.30;;;;;;;;;;5051675;28;20173;-67
2022/08/08 07:40:17;;;;;;;6.50;3.00;;;;;;;;;;5053417;28;20181;-67
2022/08/08 07:42:43;;;;;;;6.90;3.40;;;;;;;;;;5054199;28;20204;-67
2022/08/08 07:45:09;;;;;;;3.85;2.90;;;;;;;;;;5052850;28;20272;-68
2022/08/08 07:47:34;;;;;;;5.93;2.97;;;;;;;;;;5054754;28;20189;-67
2022/08/08 07:50:01;;;;;;;9.48;3.25;;;;;;;;;;5061696;28;20181;-67
2022/08/08 07:52:28;;;;;;;7.30;2.83;;;;;;;;;;5055692;28;20243;-68
2022/08/08 07:55:23;;;;;;;5.93;2.70;;;;;;;;;;5056294;28;20209;-68
2022/08/08 07:58:00;;;;;;;9.63;2.75;;;;;;;;;;5062651;28;20200;-69
2022/08/08 08:00:38;;;;;;;6.28;2.60;;;;;;;;;;5060501;28;20220;-68
2022/08/08 08:03:19;;;;;;;4.97;2.30;;;;;;;;;;5058337;28;20224;-67
2022/08/08 08:05:50;;;;;;;4.50;2.30;;;;;;;;;;5060984;28;20207;-67
2022/08/08 08:08:18;;;;;;;6.60;2.03;;;;;;;;;;5065960;28;20220;-67
2022/08/08 08:10:45;;;;;;;6.30;2.50;;;;;;;;;;5059176;28;20180;-67
2022/08/08 08:13:32;;;;;;;6.13;2.10;;;;;;;;;;5056725;28;20206;-67
2022/08/08 08:16:02;;;;;;;4.93;2.10;;;;;;;;;;5059349;28;20184;-66
2022/08/08 08:18:41;;;;;;;6.68;2.30;;;;;;;;;;5063986;28;20233;-67
2022/08/08 08:21:07;;;;;;;6.32;3.25;;;;;;;;;;5058050;28;20200;-67
2022/08/08 08:23:33;;;;;;;5.40;2.25;;;;;;;;;;5070292;28;20270;-67
2022/08/08 08:25:58;;;;;;;7.60;2.10;;;;;;;;;;5062485;28;20277;-67
2022/08/08 08:28:24;;;;;;;3.67;2.15;;;;;;;;;;5060691;28;20285;-69
2022/08/08 08:30:50;;;;;;;5.00;2.30;;;;;;;;;;5061988;28;20173;-67
2022/08/08 08:33:15;;;;;;;3.92;1.70;;;;;;;;;;5055301;28;20267;-67
2022/08/08 08:35:41;;;;;;;5.25;1.80;;;;;;;;;;5069125;28;20735;-67
2022/08/08 08:38:07;;;;;;;5.13;1.90;;;;;;;;;;5067702;28;20207;-68
2022/08/08 08:40:33;;;;;;;4.97;1.83;;;;;;;;;;5054745;28;20176;-67
2022/08/08 08:42:58;;;;;;;5.18;1.85;;;;;;;;;;5067529;28;20205;-67
2022/08/08 08:45:24;;;;;;;4.07;1.70;;;;;;;;;;5066203;28;20176;-66
2022/08/08 08:47:52;;;;;;;3.22;1.60;;;;;;;;;;5062688;28;20185;-67
2022/08/08 08:50:17;;;;;;;4.82;1.95;;;;;;;;;;5063671;28;20181;-67
2022/08/08 08:52:45;;;;;;;5.93;1.50;;;;;;;;;;5066428;28;20661;-67
2022/08/08 08:55:14;;;;;;;5.65;1.92;;;;;;;;;;5061879;28;20670;-67
2022/08/08 08:57:42;;;;;;;4.43;1.52;;;;;;;;;;5054831;28;20173;-67
2022/08/08 09:00:09;;;;;;;2.65;1.30;;;;;;;;;;5048652;28;20231;-67
2022/08/08 09:02:36;;;;;;;4.90;2.47;;;;;;;;;;5063883;28;20201;-67
2022/08/08 09:05:04;;;;;;;4.30;1.45;;;;;;;;;;5069363;28;20199;-67
2022/08/08 09:07:33;;;;;;;5.03;1.38;;;;;;;;;;5060146;28;20192;-67
2022/08/08 09:09:59;;;;;;;3.05;1.08;;;;;;;;;;5066168;28;20187;-67
2022/08/08 09:12:26;;;;;;;5.18;1.30;;;;;;;;;;5070728;28;20590;-67
2022/08/08 09:14:55;;;;;;;4.68;1.55;;;;;;;;;;5061436;28;20220;-68
2022/08/08 09:17:23;;;;;;;2.72;1.17;;;;;;;;;;5064582;28;20257;-67
2022/08/08 09:19:53;;;;;;;2.38;1.55;;;;;;;;;;5058754;28;20296;-68
2022/08/08 09:22:21;;;;;;;6.25;1.48;;;;;;;;;;5067551;28;20211;-67
2022/08/08 09:24:48;;;;;;;5.45;1.48;;;;;;;;;;5062005;28;20169;-67
2022/08/08 09:27:15;;;;;;;5.43;1.33;;;;;;;;;;5069734;28;20311;-68
2022/08/08 09:29:48;;;;;;;4.78;1.60;;;;;;;;;;5069799;28;20566;-67
2022/08/08 09:32:21;;;;;;;3.42;1.48;;;;;;;;;;5055103;28;20215;-68
2022/08/08 09:34:49;;;;;;;3.15;1.40;;;;;;;;;;5051602;28;20181;-67
2022/08/08 09:37:17;;;;;;;3.70;1.30;;;;;;;;;;5054444;28;20292;-67
2022/08/08 09:39:54;;;;;;;5.88;1.40;;;;;;;;;;5063585;28;20756;-67
2022/08/08 09:42:22;;;;;;;4.15;1.30;;;;;;;;;;5067717;28;20266;-65
2022/08/08 09:45:08;;;;;;;6.30;1.50;;;;;;;;;;5070866;28;20275;-66
2022/08/08 09:47:35;;;;;;;2.22;1.30;;;;;;;;;;5067358;28;20246;-70
2022/08/08 09:50:07;;;;;;;4.03;1.30;;;;;;;;;;5070581;28;20223;-68
2022/08/08 09:52:34;;;;;;;2.03;1.20;;;;;;;;;;5061840;28;20188;-68
2022/08/08 09:55:01;;;;;;;2.17;1.17;;;;;;;;;;5064546;28;20258;-68
2022/08/08 09:57:37;;;;;;;4.18;0.90;;;;;;;;;;5065441;28;20274;-69
2022/08/08 10:00:11;;;;;;;2.40;0.90;;;;;;;;;;5066289;28;20192;-68
2022/08/08 10:02:50;;;;;;;4.93;0.85;;;;;;;;;;5060534;28;20204;-68
2022/08/08 10:05:17;;;;;;;4.32;1.02;;;;;;;;;;5054044;28;20593;-67
2022/08/08 10:07:50;;;;;;;3.25;1.05;;;;;;;;;;5060270;28;20211;-67
2022/08/08 10:10:42;;;;;;;2.45;0.90;;;;;;;;;;5067992;28;20189;-67
2022/08/08 10:13:20;;;;;;;3.08;0.80;;;;;;;;;;5057073;28;20185;-67
2022/08/08 10:15:49;;;;;;;1.75;0.70;;;;;;;;;;5067440;28;20246;-68
2022/08/08 10:18:24;;;;;;;1.52;0.90;;;;;;;;;;5058960;28;20189;-68
2022/08/08 10:20:52;;;;;;;2.45;0.93;;;;;;;;;;5065465;28;20195;-68
2022/08/08 10:23:36;;;;;;;1.60;1.00;;;;;;;;;;5055664;28;20256;-68
2022/08/08 10:26:02;;;;;;;2.30;1.10;;;;;;;;;;5064343;28;20233;-66
2022/08/08 10:28:32;;;;;;;3.67;1.27;;;;;;;;;;5053865;28;20181;-66
2022/08/08 10:32:30;;;;;;;5.63;1.00;;;;;;;;;;5058274;28;20206;-66
2022/08/08 10:33:46;;;;;;;7.88;1.52;;;;;;;;;;5056544;28;20273;-67
2022/08/08 10:36:13;;;;;;;3.63;1.27;;;;;;;;;;5048595;28;20189;-68
2022/08/08 10:38:40;;;;;;;3.90;1.30;;;;;;;;;;5063578;28;20307;-67
2022/08/08 10:41:14;;;;;;;4.13;1.38;;;;;;;;;;5069032;28;20180;-67
2022/08/08 10:43:40;;;;;;;2.58;0.90;;;;;;;;;;5055153;28;20192;-67
2022/08/08 10:48:54;;;;;;;2.63;0.95;;;;;;;;;;5066568;28;20199;-67
2022/08/08 10:51:25;;;;;;;4.88;1.00;;;;;;;;;;5068935;28;20336;-67
2022/08/08 10:53:53;;;;;;;3.65;1.00;;;;;;;;;;5056412;28;20178;-67
2022/08/08 10:56:19;;;;;;;1.95;0.65;;;;;;;;;;5053889;28;20178;-67
2022/08/08 10:58:45;;;;;;;1.80;0.75;;;;;;;;;;5048606;28;20270;-67
2022/08/08 11:01:11;;;;;;;2.78;0.93;;;;;;;;;;5050117;28;20205;-67
2022/08/08 11:03:43;;;;;;;5.32;1.00;;;;;;;;;;5050123;28;20637;-67
2022/08/08 11:06:09;;;;;;;4.82;1.15;;;;;;;;;;5050670;28;20656;-66
2022/08/08 11:08:35;;;;;;;2.58;0.90;;;;;;;;;;5074835;28;20180;-68
2022/08/08 11:11:06;;;;;;;2.38;0.90;;;;;;;;;;5050021;28;20669;-67
2022/08/08 11:13:43;;;;;;;3.17;0.90;;;;;;;;;;5064110;28;20238;-68
2022/08/08 11:16:19;;;;;;;2.47;0.90;;;;;;;;;;5056982;28;20195;-67
2022/08/08 11:18:47;;;;;;;3.95;0.85;;;;;;;;;;5058400;28;20185;-65
2022/08/08 11:21:14;;;;;;;1.92;0.80;;;;;;;;;;5069613;28;20632;-66
2022/08/08 11:23:41;;;;;;;2.92;0.88;;;;;;;;;;5050344;28;20257;-65
2022/08/08 11:26:09;;;;;;;1.35;0.70;;;;;;;;;;5058877;28;20254;-66
2022/08/08 11:28:36;;;;;;;2.05;1.00;;;;;;;;;;5053482;28;20196;-66
2022/08/08 11:31:03;;;;;;;2.63;0.90;;;;;;;;;;5059518;28;20185;-67
2022/08/08 11:33:31;;;;;;;3.80;1.02;;;;;;;;;;5050026;28;20535;-67
2022/08/08 11:35:56;;;;;;;2.50;0.88;;;;;;;;;;5056718;28;20189;-67
2022/08/08 11:38:24;;;;;;;3.42;0.98;;;;;;;;;;5069130;28;20590;-66
2022/08/08 11:40:53;;;;;;;3.83;1.00;;;;;;;;;;5059145;28;20268;-68
2022/08/08 11:43:20;;;;;;;3.88;0.90;;;;;;;;;;5064773;28;20262;-68
2022/08/08 11:45:47;;;;;;;3.00;1.00;;;;;;;;;;5065712;28;20184;-66
2022/08/08 11:48:14;;;;;;;3.67;0.90;;;;;;;;;;5058924;28;20254;-66
2022/08/08 11:50:39;;;;;;;3.42;0.80;;;;;;;;;;5050248;28;20201;-66
2022/08/08 11:53:07;;;;;;;2.08;0.77;;;;;;;;;;5061979;28;20200;-66
2022/08/08 11:55:34;;;;;;;5.85;1.10;;;;;;;;;;5060688;28;20172;-66
2022/08/08 11:58:01;;;;;;;4.28;1.35;;;;;;;;;;5056641;28;20181;-67
2022/08/08 12:00:27;;;;;;;4.75;1.20;;;;;;;;;;5068743;28;20176;-67
2022/08/08 12:02:53;;;;;;;3.28;0.90;;;;;;;;;;5067509;28;20235;-67
2022/08/08 12:05:31;;;;;;;3.10;0.93;;;;;;;;;;5066162;28;20181;-67
2022/08/08 12:07:56;;;;;;;2.95;1.30;;;;;;;;;;5063843;28;20187;-68
2022/08/08 12:10:24;;;;;;;5.05;1.35;;;;;;;;;;5066336;28;20185;-66
2022/08/08 12:13:09;;;;;;;4.40;0.98;;;;;;;;;;5060288;28;20740;-67
2022/08/08 12:15:39;;;;;;;5.30;0.77;;;;;;;;;;5057242;28;20204;-67
2022/08/08 12:18:17;;;;;;;3.20;1.27;;;;;;;;;;5068660;28;20184;-67
2022/08/08 12:20:42;;;;;;;3.70;1.05;;;;;;;;;;5062157;28;20188;-67
2022/08/08 12:23:08;;;;;;;2.25;1.10;;;;;;;;;;5068139;28;20213;-67
2022/08/08 12:25:33;;;;;;;1.90;1.33;;;;;;;;;;5064135;28;20177;-66
2022/08/08 12:28:14;;;;;;;6.07;1.08;;;;;;;;;;5067480;28;20224;-66
2022/08/08 12:30:41;;;;;;;3.30;1.40;;;;;;;;;;5048711;28;20185;-66
2022/08/08 12:33:25;;;;;;;2.70;0.98;;;;;;;;;;5052987;28;20684;-66
2022/08/08 12:35:51;;;;;;;2.95;1.10;;;;;;;;;;5058910;28;20258;-67
2022/08/08 12:38:17;;;;;;;3.03;1.20;;;;;;;;;;5059106;28;20662;-67
2022/08/08 12:40:43;;;;;;;3.25;1.13;;;;;;;;;;5056532;28;20256;-66
2022/08/08 12:43:11;;;;;;;2.78;1.08;;;;;;;;;;5071976;28;20346;-67
2022/08/08 12:45:41;;;;;;;4.07;1.20;;;;;;;;;;5067913;28;20212;-65
2022/08/08 12:48:18;;;;;;;2.55;0.90;;;;;;;;;;5069392;28;20554;-66
2022/08/08 12:50:46;;;;;;;2.05;1.33;;;;;;;;;;5055190;28;20240;-66
2022/08/08 12:53:19;;;;;;;2.05;0.80;;;;;;;;;;5063348;28;20192;-67
2022/08/08 12:55:58;;;;;;;5.72;1.20;;;;;;;;;;5054573;28;20193;-66
2022/08/08 12:58:25;;;;;;;2.40;0.90;;;;;;;;;;5063139;28;20188;-66
2022/08/08 13:00:50;;;;;;;3.22;1.00;;;;;;;;;;5053872;28;20174;-70
2022/08/08 13:03:27;;;;;;;3.90;0.90;;;;;;;;;;5072416;28;20582;-70
2022/08/08 13:06:13;;;;;;;2.45;0.90;;;;;;;;;;5061609;28;20703;-67
2022/08/08 13:08:44;;;;;;;1.48;0.88;;;;;;;;;;5072893;28;20183;-67
2022/08/08 13:11:33;;;;;;;1.13;0.63;;;;;;;;;;5057774;28;20547;-69
2022/08/08 13:14:02;;;;;;;3.67;0.90;;;;;;;;;;5054828;28;20612;-66
2022/08/08 13:16:30;;;;;;;3.60;0.98;;;;;;;;;;5056632;28;20471;-68
2022/08/08 13:18:57;;;;;;;2.85;1.10;;;;;;;;;;5053499;28;20188;-69
2022/08/08 13:21:23;;;;;;;2.90;1.63;;;;;;;;;;5067649;28;20677;-69
2022/08/08 13:23:48;;;;;;;3.25;1.20;;;;;;;;;;5066078;28;20272;-67
2022/08/08 13:26:13;;;;;;;3.75;0.82;;;;;;;;;;5054231;28;20569;-68
2022/08/08 13:28:39;;;;;;;2.13;1.00;;;;;;;;;;5069036;28;20298;-69
2022/08/08 13:31:04;;;;;;;1.90;0.80;;;;;;;;;;5061441;28;20213;-67
2022/08/08 13:33:30;;;;;;;4.63;0.98;;;;;;;;;;5057816;28;20169;-69
2022/08/08 13:35:56;;;;;;;2.80;1.25;;;;;;;;;;5070894;28;20184;-69
2022/08/08 13:38:22;;;;;;;5.03;0.90;;;;;;;;;;5068216;28;20363;-68
2022/08/08 13:40:47;;;;;;;2.53;1.05;;;;;;;;;;5060310;28;20206;-69
2022/08/08 13:43:14;;;;;;;3.38;0.90;;;;;;;;;;5059109;28;20220;-69
2022/08/08 13:45:39;;;;;;;4.93;1.40;;;;;;;;;;5056079;28;20188;-67
2022/08/08 13:48:12;;;;;;;2.67;0.90;;;;;;;;;;5070694;28;20192;-67
2022/08/08 13:50:47;;;;;;;2.03;1.08;;;;;;;;;;5063699;28;20189;-68
2022/08/08 13:53:23;;;;;;;4.35;1.40;;;;;;;;;;5050776;28;20177;-67
2022/08/08 13:55:57;;;;;;;2.97;0.70;;;;;;;;;;5057332;28;20188;-71
2022/08/08 13:58:22;;;;;;;5.15;0.93;;;;;;;;;;5069513;28;20242;-68
2022/08/08 14:00:49;;;;;;;2.53;1.20;;;;;;;;;;5053650;28;20181;-67
2022/08/08 14:03:25;;;;;;;1.80;1.15;;;;;;;;;;5063424;28;20222;-67
2022/08/08 14:05:50;;;;;;;3.67;1.08;;;;;;;;;;5050531;28;20173;-75
2022/08/08 14:08:15;;;;;;;2.08;1.15;;;;;;;;;;5072776;28;20752;-68
2022/08/08 14:10:41;;;;;;;4.35;1.00;;;;;;;;;;5060632;28;20172;-69
2022/08/08 14:13:11;;;;;;;3.90;1.10;;;;;;;;;;5060171;28;20264;-70
2022/08/08 14:15:37;;;;;;;3.67;1.00;;;;;;;;;;5062076;28;20232;-68
2022/08/08 14:18:04;;;;;;;2.22;0.90;;;;;;;;;;5054803;28;20572;-75
2022/08/08 14:20:31;;;;;;;4.18;1.10;;;;;;;;;;5052515;28;20181;-68
2022/08/08 14:23:10;;;;;;;1.60;0.73;;;;;;;;;;5063180;28;20696;-70
2022/08/08 14:25:43;;;;;;;4.13;1.17;;;;;;;;;;5064376;28;20543;-68
2022/08/08 14:28:09;;;;;;;2.70;0.80;;;;;;;;;;5070258;28;20188;-68
2022/08/08 14:30:34;;;;;;;2.70;0.93;;;;;;;;;;5053460;28;20196;-69
2022/08/08 14:33:00;;;;;;;2.47;0.73;;;;;;;;;;5056128;28;20211;-67
2022/08/08 14:35:26;;;;;;;4.05;1.23;;;;;;;;;;5055418;28;20173;-69
2022/08/08 14:37:52;;;;;;;2.63;0.88;;;;;;;;;;5070517;28;20206;-75
2022/08/08 14:40:23;;;;;;;3.05;0.90;;;;;;;;;;5058958;28;20674;-68
2022/08/08 14:42:53;;;;;;;3.83;1.10;;;;;;;;;;5056051;28;20283;-67
2022/08/08 14:45:21;;;;;;;3.35;1.05;;;;;;;;;;5054603;28;20185;-67
2022/08/08 14:47:51;;;;;;;2.28;0.77;;;;;;;;;;5050842;28;20527;-67
2022/08/08 14:50:21;;;;;;;2.03;1.08;;;;;;;;;;5063999;28;20184;-69
2022/08/08 14:52:52;;;;;;;3.25;1.10;;;;;;;;;;5063778;28;20273;-68
2022/08/08 14:55:18;;;;;;;1.08;0.80;;;;;;;;;;5055984;28;20180;-67
2022/08/08 14:57:44;;;;;;;7.05;2.28;;;;;;;;;;5063114;28;20189;-68
2022/08/08 15:00:11;;;;;;;5.68;3.63;;;;;;;;;;5051053;28;20668;-68
2022/08/08 15:02:37;;;;;;;2.13;1.30;;;;;;;;;;5059106;28;20259;-68
2022/08/08 15:05:03;;;;;;;6.00;1.10;;;;;;;;;;5053407;28;20616;-70
2022/08/08 15:07:29;;;;;;;2.00;0.85;;;;;;;;;;5055634;28;20186;-67
2022/08/08 15:09:54;;;;;;;5.97;0.90;;;;;;;;;;5069336;28;20271;-68
2022/08/08 15:12:20;;;;;;;1.98;0.90;;;;;;;;;;5054666;28;20173;-67
2022/08/08 15:14:45;;;;;;;3.03;0.93;;;;;;;;;;5065356;28;20220;-69